Time;durP1;ratioP1;P1;durP2;ratioP2;P2;SDS_P1;SDS_P2;PMS_P1;PMS_P2;Temp;Humidity;BMP_temperature;BMP_pressure;BME280_temperature;BME280_humidity;BME280_pressure;Samples;Min_cycle;Max_cycle;Signal;HPM_P1;HPM_P2
2023/10/18 00:01:04;;;;;;;7.53;2.22;;;;;;;6.52;77.37;100960.25;10294794;28;20097;-75
2023/10/18 00:06:16;;;;;;;6.65;2.38;;;;;;;6.59;77.52;100959.63;10294757;28;20177;-76
2023/10/18 00:11:17;;;;;;;10.95;2.90;;;;;;;6.55;77.21;100965.28;10289573;28;20064;-76
2023/10/18 00:16:18;;;;;;;11.23;3.88;;;;;;;6.30;77.13;100906.59;10294457;28;20078;-75
2023/10/18 00:21:19;;;;;;;11.13;3.33;;;;;;;6.45;76.61;100941.44;10295764;28;20114;-76
2023/10/18 00:26:20;;;;;;;13.07;3.88;;;;;;;6.06;77.66;100890.16;10294261;28;20049;-75
2023/10/18 00:31:21;;;;;;;10.38;3.55;;;;;;;6.40;78.05;100948.91;10293421;28;20549;-78
2023/10/18 00:36:22;;;;;;;10.68;3.60;;;;;;;6.26;77.88;100954.47;10279349;28;20039;-76
2023/10/18 00:41:25;;;;;;;15.63;3.55;;;;;;;5.72;78.89;100920.06;10254623;28;20047;-76
2023/10/18 00:46:28;;;;;;;7.22;2.60;;;;;;;5.74;79.59;100991.09;10254158;29;20105;-76
2023/10/18 00:51:29;;;;;;;5.38;2.45;;;;;;;5.70;79.46;100997.56;10253525;29;20039;-76
2023/10/18 00:56:30;;;;;;;9.05;2.60;;;;;;;5.66;80.25;100990.88;10252866;29;20047;-76
2023/10/18 01:01:35;;;;;;;8.35;2.15;;;;;;;5.26;80.53;100930.72;10252702;29;20054;-76
2023/10/18 01:06:36;;;;;;;10.60;2.80;;;;;;;5.57;80.98;100989.81;10254048;29;20523;-75
2023/10/18 01:11:37;;;;;;;12.93;3.40;;;;;;;5.48;80.90;100978.19;10273515;28;20130;-76
2023/10/18 01:16:38;;;;;;;12.10;3.05;;;;;;;5.44;80.47;101016.28;10292134;28;20051;-76
2023/10/18 01:21:38;;;;;;;21.50;3.58;;;;;;;5.46;80.67;101003.81;10292748;28;20073;-76
2023/10/18 01:26:40;;;;;;;7.50;2.60;;;;;;;5.54;80.91;101018.19;10292314;28;20047;-76
2023/10/18 01:31:44;;;;;;;8.02;2.72;;;;;;;5.49;81.08;101022.00;10292748;28;20506;-76
2023/10/18 01:36:46;;;;;;;10.55;3.25;;;;;;;5.28;81.68;101028.94;10292471;28;20045;-76
2023/10/18 01:41:53;;;;;;;9.60;3.20;;;;;;;5.18;82.69;100994.56;10291284;28;20050;-75
2023/10/18 01:47:07;;;;;;;10.40;2.90;;;;;;;4.85;82.01;100955.84;10291656;28;20446;-75
2023/10/18 01:52:08;;;;;;;10.82;2.88;;;;;;;5.24;81.24;101030.13;10291828;28;20042;-76
2023/10/18 01:57:11;;;;;;;6.70;2.85;;;;;;;5.03;81.24;101009.72;10289893;28;20043;-81
2023/10/18 02:02:14;;;;;;;18.08;4.18;;;;;;;5.09;82.09;101015.50;10291967;28;20039;-72
2023/10/18 02:07:17;;;;;;;12.10;5.53;;;;;;;4.97;81.66;100993.56;10288352;28;20047;-76
2023/10/18 02:12:21;;;;;;;33.58;5.95;;;;;;;4.79;81.99;100948.41;10291354;28;20078;-76
2023/10/18 02:17:22;;;;;;;23.13;5.78;;;;;;;5.12;82.51;101002.09;10290969;28;20038;-75
2023/10/18 02:22:22;;;;;;;18.95;4.97;;;;;;;4.79;82.90;100959.75;10292008;28;20050;-76
2023/10/18 02:27:24;;;;;;;32.60;5.80;;;;;;;5.01;82.69;101009.00;10270410;28;20069;-76
2023/10/18 02:32:34;;;;;;;27.45;4.35;;;;;;;5.11;82.71;101027.56;10258846;28;20137;-76
2023/10/18 02:37:35;;;;;;;37.33;5.40;;;;;;;4.81;83.03;100946.47;10279367;28;20093;-76
2023/10/18 02:42:36;;;;;;;29.67;4.85;;;;;;;5.30;82.87;101042.00;10291381;28;20479;-76
2023/10/18 02:47:37;;;;;;;29.48;4.85;;;;;;;5.33;82.80;101020.69;10291414;28;20043;-76
2023/10/18 02:52:38;;;;;;;28.70;4.65;;;;;;;5.40;82.70;101011.34;10294332;28;20562;-76
2023/10/18 02:57:42;;;;;;;38.53;5.28;;;;;;;5.57;82.26;101028.50;10297700;28;20043;-76
2023/10/18 03:02:42;;;;;;;34.58;4.60;;;;;;;5.64;82.53;101027.06;10298292;28;20046;-76
2023/10/18 03:07:43;;;;;;;76.53;7.68;;;;;;;5.29;82.92;100966.53;10296793;28;20054;-76
2023/10/18 03:12:44;;;;;;;50.33;5.75;;;;;;;5.57;83.56;101007.41;10297634;28;20482;-76
2023/10/18 03:17:48;;;;;;;49.33;6.45;;;;;;;5.55;83.41;101009.31;10296774;28;20430;-76
2023/10/18 03:22:50;;;;;;;47.15;6.15;;;;;;;5.56;83.35;100997.81;10297003;28;20049;-76
2023/10/18 03:27:51;;;;;;;20.95;6.88;;;;;;;5.63;83.69;101020.94;10296815;28;20141;-76
2023/10/18 03:32:53;;;;;;;42.67;7.28;;;;;;;5.38;83.35;100977.19;10296449;28;20038;-76
2023/10/18 03:37:57;;;;;;;37.70;8.07;;;;;;;5.61;83.27;101006.22;10296783;28;20054;-76
2023/10/18 03:42:59;;;;;;;26.42;7.05;;;;;;;5.84;83.30;101033.41;10296286;28;20414;-76
2023/10/18 03:48:01;;;;;;;32.13;7.20;;;;;;;5.82;82.46;101022.16;10295409;28;20042;-76
2023/10/18 03:53:02;;;;;;;35.38;8.98;;;;;;;5.84;83.08;101031.63;10295831;28;20483;-76
2023/10/18 03:58:07;;;;;;;27.55;9.02;;;;;;;5.92;82.81;101036.28;10296459;28;20042;-76
2023/10/18 04:03:12;;;;;;;25.08;6.85;;;;;;;5.90;83.33;101035.56;10295912;28;20047;-83
2023/10/18 04:08:20;;;;;;;22.83;7.30;;;;;;;5.96;82.54;101050.09;10295774;28;20042;-82
2023/10/18 04:13:24;;;;;;;21.23;6.65;;;;;;;6.04;82.63;101055.59;10295578;28;20050;-83
2023/10/18 04:18:26;;;;;;;42.63;7.93;;;;;;;6.19;82.41;101030.63;10294626;28;20067;-83
2023/10/18 04:23:27;;;;;;;38.28;7.50;;;;;;;6.24;82.37;101007.38;10283048;28;20051;-83
2023/10/18 04:28:29;;;;;;;23.30;7.55;;;;;;;6.63;82.52;101047.31;10258574;28;20057;-84
2023/10/18 04:33:48;;;;;;;17.98;6.80;;;;;;;6.77;81.46;101048.84;10286103;28;20104;-84
2023/10/18 04:38:51;;;;;;;25.55;7.15;;;;;;;6.94;80.49;101018.38;10281270;28;20050;-85
2023/10/18 04:44:38;;;;;;;37.17;8.48;;;;;;;7.43;80.04;101040.69;10293609;28;20043;-84
2023/10/18 04:49:36;;;;;;;91.53;33.75;;;;;;;7.71;79.10;101042.63;10267250;28;20076;-85
2023/10/18 04:54:42;;;;;;;74.25;30.00;;;;;;;7.75;78.19;101030.84;10292912;28;20096;-83
2023/10/18 04:59:46;;;;;;;56.20;21.75;;;;;;;7.75;77.26;100967.34;10293273;28;20069;-85
2023/10/18 05:04:47;;;;;;;43.27;16.03;;;;;;;7.71;76.24;100946.59;10292544;28;20042;-84
2023/10/18 05:09:55;;;;;;;36.53;15.85;;;;;;;8.26;75.85;100999.94;10292274;28;20162;-84
2023/10/18 05:15:16;;;;;;;31.05;14.05;;;;;;;8.81;75.03;101065.66;10293275;28;20494;-84
2023/10/18 05:35:43;;;;;;;41.28;25.83;;;;;;;9.57;69.58;101032.06;10271306;28;20481;-85
2023/10/18 05:40:56;;;;;;;40.95;18.23;;;;;;;9.87;68.69;101037.25;10291912;28;20047;-82
2023/10/18 05:46:07;;;;;;;24.95;8.27;;;;;;;10.10;68.40;101048.31;10291364;28;20039;-82
2023/10/18 05:51:26;;;;;;;24.75;10.82;;;;;;;10.07;67.85;101002.50;10291788;28;20058;-83
2023/10/18 05:56:34;;;;;;;41.05;18.70;;;;;;;10.68;67.21;101071.94;10291673;28;20043;-83
2023/10/18 06:01:35;;;;;;;72.60;30.25;;;;;;;11.02;66.13;101064.09;10290819;28;20113;-83
2023/10/18 06:06:38;;;;;;;62.58;28.30;;;;;;;10.56;65.65;100973.00;10291526;28;20039;-82
2023/10/18 06:11:39;;;;;;;40.72;19.10;;;;;;;11.31;64.88;101071.81;10292178;28;20038;-84
2023/10/18 06:16:42;;;;;;;22.85;8.60;;;;;;;11.47;64.30;101059.59;10290689;28;20506;-83
2023/10/18 06:21:57;;;;;;;19.45;8.38;;;;;;;11.29;63.64;101003.78;10289707;28;20086;-83
2023/10/18 06:26:58;;;;;;;34.28;17.20;;;;;;;11.60;63.00;100999.63;10294259;28;20046;-84
2023/10/18 06:31:58;;;;;;;31.50;13.48;;;;;;;12.29;61.53;101016.44;10298506;28;20134;-84
2023/10/18 06:37:01;;;;;;;20.23;10.23;;;;;;;12.76;60.28;101036.31;10299138;28;20137;-85
2023/10/18 06:42:09;;;;;;;14.18;5.60;;;;;;;12.85;59.09;100997.16;10299260;28;20137;-84
2023/10/18 06:47:13;;;;;;;8.93;3.45;;;;;;;13.40;58.32;101028.47;10298899;28;20517;-86
2023/10/18 06:52:17;;;;;;;10.68;2.65;;;;;;;13.65;56.80;101003.41;10298398;28;20039;-85
2023/10/18 06:57:36;;;;;;;8.10;2.63;;;;;;;13.91;55.25;101005.81;10298016;28;20077;-85
2023/10/18 07:02:37;;;;;;;11.38;4.05;;;;;;;13.64;54.00;100918.13;10297785;28;20069;-84
2023/10/18 07:07:38;;;;;;;5.47;2.25;;;;;;;14.24;52.54;100944.19;10297299;28;20051;-84
2023/10/18 07:12:47;;;;;;;4.45;2.13;;;;;;;14.66;51.08;100956.28;10297209;28;20039;-85
2023/10/18 07:17:49;;;;;;;5.05;2.38;;;;;;;14.75;50.56;100931.13;10296469;28;20101;-84
2023/10/18 07:22:55;;;;;;;14.25;3.33;;;;;;;14.98;50.64;100963.16;10296589;28;20038;-86
2023/10/18 07:27:55;;;;;;;28.55;8.65;;;;;;;15.05;50.59;100996.22;10296376;28;20038;-87
2023/10/18 07:32:57;;;;;;;18.63;7.45;;;;;;;14.68;50.81;100950.72;10296218;28;20043;-83
2023/10/18 07:37:58;;;;;;;18.13;4.10;;;;;;;14.89;50.01;100996.34;10296482;28;20047;-83
2023/10/18 07:43:00;;;;;;;9.77;3.47;;;;;;;14.87;49.76;100968.09;10295594;28;20505;-84
2023/10/18 07:48:05;;;;;;;10.05;2.97;;;;;;;15.09;49.11;100985.97;10296076;28;20035;-85
2023/10/18 07:53:06;;;;;;;5.32;1.90;;;;;;;15.60;48.14;100963.84;10295913;28;20035;-83
2023/10/18 07:58:17;;;;;;;9.85;2.00;;;;;;;15.83;47.24;100961.09;10296029;28;20043;-84
2023/10/18 08:03:18;;;;;;;17.80;8.80;;;;;;;15.57;46.49;100942.81;10294661;28;20101;-84
2023/10/18 08:08:18;;;;;;;6.15;2.60;;;;;;;16.13;45.57;100948.47;10295649;28;20073;-84
2023/10/18 08:13:25;;;;;;;42.90;8.55;;;;;;;15.97;45.43;100953.03;10294537;28;20038;-83
2023/10/18 08:18:44;;;;;;;15.63;4.38;;;;;;;15.29;45.28;100829.19;10294481;28;20063;-84
2023/10/18 08:23:45;;;;;;;7.75;1.70;;;;;;;15.99;44.38;100928.72;10295277;28;20042;-85
2023/10/18 08:28:46;;;;;;;6.20;1.67;;;;;;;16.07;44.29;100925.09;10294056;28;20046;-85
2023/10/18 08:33:47;;;;;;;13.45;3.30;;;;;;;16.16;43.66;100927.47;10294511;28;20042;-85
2023/10/18 08:38:48;;;;;;;14.75;4.78;;;;;;;16.13;44.00;100911.75;10294262;28;20099;-81
2023/10/18 08:44:08;;;;;;;16.25;5.18;;;;;;;16.06;43.27;100894.75;10294061;28;20035;-87
2023/10/18 08:49:12;;;;;;;7.95;2.42;;;;;;;15.72;43.81;100850.72;10293072;28;20047;-83
2023/10/18 08:54:18;;;;;;;10.15;3.75;;;;;;;15.74;43.67;100875.47;10293849;28;20113;-81
2023/10/18 08:59:20;;;;;;;6.72;2.20;;;;;;;15.28;44.13;100819.47;10293385;28;20051;-85
2023/10/18 09:04:21;;;;;;;6.40;2.40;;;;;;;15.73;43.71;100894.41;10293946;28;20035;-82
2023/10/18 09:09:22;;;;;;;7.82;2.00;;;;;;;15.23;43.88;100826.44;10292937;28;20042;-81
2023/10/18 09:14:22;;;;;;;5.13;1.80;;;;;;;15.53;44.07;100862.84;10293348;28;20042;-83
2023/10/18 09:19:27;;;;;;;6.47;1.80;;;;;;;15.78;43.62;100875.94;10292709;28;20506;-81
2023/10/18 09:24:30;;;;;;;23.38;2.28;;;;;;;15.89;43.31;100854.00;10292185;28;20058;-84
2023/10/18 09:29:34;;;;;;;8.27;2.78;;;;;;;16.01;42.13;100848.16;10292157;28;20039;-82
2023/10/18 09:34:37;;;;;;;16.07;1.87;;;;;;;15.78;43.17;100851.81;10292307;28;20043;-84
2023/10/18 09:39:38;;;;;;;6.00;2.40;;;;;;;15.38;43.15;100796.97;10291972;28;20054;-83
2023/10/18 09:44:42;;;;;;;9.63;2.55;;;;;;;15.28;42.85;100830.19;10292655;28;20039;-83
2023/10/18 09:49:45;;;;;;;18.50;5.88;;;;;;;15.20;43.04;100830.31;10291492;28;20459;-81
2023/10/18 09:54:50;;;;;;;18.20;2.92;;;;;;;15.26;42.41;100836.78;10274107;28;20046;-82
2023/10/18 09:59:54;;;;;;;11.07;2.97;;;;;;;14.88;42.87;100772.66;10293793;28;20130;-83
2023/10/18 10:05:03;;;;;;;10.90;3.30;;;;;;;14.96;43.62;100793.97;10305374;28;20046;-84
2023/10/18 10:10:17;;;;;;;6.55;1.90;;;;;;;14.38;43.47;100702.84;10304200;28;20038;-83
2023/10/18 10:15:18;;;;;;;9.93;2.10;;;;;;;15.14;43.65;100811.50;10305283;28;20039;-83
2023/10/18 10:20:21;;;;;;;8.93;4.20;;;;;;;15.28;42.74;100805.28;10304018;28;20457;-81
2023/10/18 10:25:31;;;;;;;11.38;5.07;;;;;;;15.31;42.87;100799.53;10304402;28;20043;-83
2023/10/18 10:30:38;;;;;;;18.05;2.75;;;;;;;15.79;41.67;100802.56;10304551;28;20125;-81
2023/10/18 10:35:44;;;;;;;18.27;2.90;;;;;;;16.02;41.51;100802.38;10304321;28;20062;-83
2023/10/18 10:41:05;;;;;;;8.85;2.75;;;;;;;15.67;41.35;100740.63;10304712;28;20078;-83
2023/10/18 10:46:45;;;;;;;12.45;2.60;;;;;;;15.93;40.52;100788.28;10304109;28;20038;-83
2023/10/18 10:51:49;;;;;;;6.18;2.22;;;;;;;15.77;41.78;100787.72;10303820;28;20043;-84
2023/10/18 10:56:53;;;;;;;19.25;6.30;;;;;;;15.84;42.09;100784.09;10303546;28;20046;-85
2023/10/18 11:06:57;;;;;;;27.00;4.25;;;;;;;15.73;42.27;100784.59;10304111;28;20080;-86
2023/10/18 11:12:00;;;;;;;8.23;3.40;;;;;;;15.77;42.08;100769.00;10301176;28;20130;-85
2023/10/18 11:22:19;;;;;;;;;;;;;;;15.95;41.70;100774.72;10297773;28;20047;-83
2023/10/18 11:27:22;;;;;;;11.95;3.05;;;;;;;15.12;42.23;100666.34;10297505;28;20364;-85
2023/10/18 11:32:28;;;;;;;10.65;2.33;;;;;;;15.59;42.35;100746.13;10296689;28;20067;-82
2023/10/18 11:37:36;;;;;;;16.00;2.33;;;;;;;15.61;42.93;100772.69;10295997;28;20085;-86
2023/10/18 11:42:55;;;;;;;7.22;2.20;;;;;;;15.56;42.25;100769.78;10296584;28;20038;-84
2023/10/18 11:47:59;;;;;;;15.77;2.50;;;;;;;14.97;43.09;100710.03;10295603;28;20462;-83
2023/10/18 11:53:12;;;;;;;16.25;2.53;;;;;;;15.29;43.48;100781.00;10294735;28;20398;-83
2023/10/18 11:58:13;;;;;;;11.20;1.95;;;;;;;15.22;43.54;100757.84;10295612;28;20117;-84
2023/10/18 12:03:14;;;;;;;9.52;2.47;;;;;;;15.29;43.90;100772.16;10296265;28;20038;-84
2023/10/18 12:08:17;;;;;;;11.02;3.40;;;;;;;15.24;44.46;100762.00;10278007;28;20422;-81
2023/10/18 12:13:20;;;;;;;16.00;2.85;;;;;;;15.14;44.50;100749.97;10295176;28;20043;-84
2023/10/18 12:18:21;;;;;;;6.97;2.20;;;;;;;15.07;44.70;100756.03;10295042;28;20065;-84
2023/10/18 12:23:22;;;;;;;12.43;3.90;;;;;;;14.95;45.13;100748.69;10294156;28;20414;-84
2023/10/18 12:28:28;;;;;;;8.73;2.78;;;;;;;14.78;44.99;100724.00;10264362;28;20043;-83
2023/10/18 12:33:33;;;;;;;7.80;3.35;;;;;;;14.83;45.08;100756.34;10292877;28;20541;-81
2023/10/18 12:38:36;;;;;;;11.15;3.25;;;;;;;14.73;45.28;100748.59;10293682;28;20145;-84
2023/10/18 12:43:44;;;;;;;17.83;1.80;;;;;;;14.58;45.42;100721.88;10293507;28;20049;-82
2023/10/18 12:48:44;;;;;;;10.38;1.52;;;;;;;14.40;45.04;100716.03;10293477;28;20282;-84
2023/10/18 12:53:49;;;;;;;38.35;19.23;;;;;;;14.38;45.19;100732.25;10294382;28;20495;-84
2023/10/18 12:58:59;;;;;;;;;;;;;;;14.49;44.90;100736.31;10274704;28;20141;-82
2023/10/18 13:03:59;;;;;;;41.33;16.92;;;;;;;14.24;45.45;100719.72;10277057;28;19929;-84
2023/10/18 13:09:15;;;;;;;108.32;57.47;;;;;;;14.19;45.60;100719.44;10281810;28;20066;-84
2023/10/18 13:14:31;;;;;;;88.25;49.28;;;;;;;14.13;45.77;100718.31;10292813;28;20565;-84
2023/10/18 13:19:32;;;;;;;46.00;24.75;;;;;;;13.91;45.87;100684.50;10293078;28;20070;-81
2023/10/18 13:24:33;;;;;;;104.10;52.67;;;;;;;13.85;46.23;100682.50;10292077;28;20045;-82
2023/10/18 13:29:35;;;;;;;59.15;34.10;;;;;;;13.78;45.82;100668.25;10292585;28;20402;-82
2023/10/18 13:34:45;;;;;;;81.50;45.63;;;;;;;13.83;45.99;100692.56;10291889;28;20039;-82
2023/10/18 13:39:47;;;;;;;124.20;70.55;;;;;;;13.65;45.88;100674.19;10291517;28;20081;-82
2023/10/18 13:44:49;;;;;;;47.05;21.90;;;;;;;13.63;46.35;100679.72;10287587;28;20502;-82
2023/10/18 13:49:50;;;;;;;18.83;6.85;;;;;;;13.23;46.68;100628.28;10272961;28;20039;-82
2023/10/18 13:54:52;;;;;;;12.85;5.10;;;;;;;13.25;46.59;100638.81;10291402;28;20049;-81
2023/10/18 13:59:54;;;;;;;22.75;10.15;;;;;;;13.29;46.37;100650.81;10291433;28;20046;-81
2023/10/18 14:04:58;;;;;;;13.57;5.57;;;;;;;12.52;46.88;100538.78;10290743;28;20133;-82
2023/10/18 14:09:59;;;;;;;23.35;4.72;;;;;;;13.24;47.24;100666.47;10291433;28;20050;-82
2023/10/18 14:15:06;;;;;;;19.65;5.20;;;;;;;12.99;47.28;100639.13;10290692;28;20038;-81
2023/10/18 14:20:10;;;;;;;16.88;4.95;;;;;;;13.07;47.39;100663.06;10290003;28;20415;-82
2023/10/18 14:25:13;;;;;;;34.45;5.85;;;;;;;12.95;47.88;100646.66;10290544;28;20062;-82
2023/10/18 14:30:14;;;;;;;10.25;4.00;;;;;;;12.98;47.70;100656.13;10291123;28;20558;-81
2023/10/18 14:35:16;;;;;;;9.88;4.07;;;;;;;12.75;48.27;100640.94;10291061;28;20045;-81
2023/10/18 14:40:23;;;;;;;8.13;2.90;;;;;;;12.90;47.75;100653.53;10290416;28;20093;-82
2023/10/18 14:45:24;;;;;;;18.77;2.70;;;;;;;12.55;47.57;100605.88;10290607;28;20506;-82
2023/10/18 14:50:27;;;;;;;16.98;4.10;;;;;;;12.49;48.25;100613.75;10297151;28;20065;-82
2023/10/18 14:55:31;;;;;;;9.23;2.25;;;;;;;12.40;48.87;100617.47;10297962;28;20046;-83
2023/10/18 15:00:32;;;;;;;12.48;4.47;;;;;;;12.16;48.85;100600.56;10281542;28;20043;-83
2023/10/18 15:05:38;;;;;;;12.70;2.80;;;;;;;11.99;48.78;100573.16;10297288;28;20070;-81
2023/10/18 15:10:40;;;;;;;15.98;3.53;;;;;;;11.99;49.08;100585.63;10298485;28;20038;-81
2023/10/18 15:15:41;;;;;;;19.30;2.25;;;;;;;12.32;48.91;100645.81;10296937;28;20042;-80
2023/10/18 15:20:43;;;;;;;6.90;1.65;;;;;;;12.25;48.91;100644.81;10297407;28;20062;-80
2023/10/18 15:25:44;;;;;;;12.80;2.38;;;;;;;12.27;49.11;100656.13;10296980;28;20058;-80
2023/10/18 15:30:45;;;;;;;7.70;1.38;;;;;;;12.15;49.11;100640.69;10296207;28;20047;-80
2023/10/18 15:35:46;;;;;;;12.88;3.42;;;;;;;12.10;49.62;100643.84;10297201;28;20038;-80
2023/10/18 15:40:47;;;;;;;12.95;2.25;;;;;;;12.07;49.36;100644.19;10296354;28;20050;-80
2023/10/18 15:45:51;;;;;;;11.70;3.35;;;;;;;11.99;49.76;100639.72;10293342;28;20042;-78
2023/10/18 15:50:52;;;;;;;15.68;4.43;;;;;;;11.97;49.31;100636.41;10295863;28;20047;-77
2023/10/18 15:55:53;;;;;;;10.02;2.90;;;;;;;11.74;49.98;100598.97;10284805;28;20042;-78
2023/10/18 16:00:58;;;;;;;7.50;2.80;;;;;;;11.84;49.79;100614.75;10264949;28;20042;-78
2023/10/18 16:06:08;;;;;;;;;;;;;;;11.91;50.04;100617.63;10286191;28;20051;-79
2023/10/18 16:11:10;;;;;;;14.48;3.25;;;;;;;11.58;50.27;100593.69;10257403;28;19921;-86
2023/10/18 16:16:11;;;;;;;9.40;1.95;;;;;;;11.56;49.81;100585.88;10261107;28;20047;-73
2023/10/18 16:21:13;;;;;;;12.63;2.38;;;;;;;11.49;50.10;100573.44;10287067;28;20070;-80
2023/10/18 16:26:19;;;;;;;5.45;2.03;;;;;;;11.46;50.23;100565.75;10294578;28;20046;-82
2023/10/18 16:31:23;;;;;;;10.35;2.90;;;;;;;11.72;50.17;100600.16;10294917;28;20098;-76
2023/10/18 16:36:24;;;;;;;7.28;1.80;;;;;;;11.38;50.69;100542.66;10294457;28;20039;-76
2023/10/18 16:41:28;;;;;;;4.43;1.50;;;;;;;11.53;51.07;100580.88;10293666;28;20053;-73
2023/10/18 16:46:30;;;;;;;5.55;1.75;;;;;;;11.39;51.43;100546.97;10293388;28;20047;-75
2023/10/18 16:51:31;;;;;;;7.15;2.25;;;;;;;11.70;51.34;100594.19;10293979;28;20042;-75
2023/10/18 16:56:32;;;;;;;8.85;2.35;;;;;;;11.29;52.41;100517.91;10293005;28;20046;-87
2023/10/18 17:01:33;;;;;;;9.02;1.67;;;;;;;11.80;52.81;100592.16;10290089;28;20503;-77
2023/10/18 17:06:34;;;;;;;7.22;1.95;;;;;;;11.85;53.80;100593.34;10284357;28;20394;-75
2023/10/18 17:11:34;;;;;;;5.32;1.73;;;;;;;11.66;54.34;100551.91;10281414;28;20039;-83
2023/10/18 17:16:35;;;;;;;10.65;1.90;;;;;;;11.23;55.11;100473.38;10234372;29;20042;-73
2023/10/18 17:21:38;;;;;;;6.05;1.45;;;;;;;12.01;55.33;100591.63;10237209;28;20058;-75
2023/10/18 17:26:39;;;;;;;6.13;1.67;;;;;;;11.82;55.64;100547.56;10277215;28;20495;-77
2023/10/18 17:31:42;;;;;;;10.50;1.60;;;;;;;11.31;56.58;100460.06;10283981;28;20046;-82
2023/10/18 17:36:42;;;;;;;4.90;1.63;;;;;;;12.17;56.82;100588.91;10257660;28;20609;-84
2023/10/18 17:41:43;;;;;;;8.05;1.90;;;;;;;12.02;56.93;100564.81;10263048;28;20109;-86
2023/10/18 17:46:45;;;;;;;4.70;1.50;;;;;;;11.78;57.13;100517.78;10291042;28;20086;-83
2023/10/18 17:51:46;;;;;;;7.47;1.63;;;;;;;11.44;57.21;100459.53;10235018;29;20142;-83
2023/10/18 17:56:47;;;;;;;9.73;1.70;;;;;;;12.07;57.83;100566.97;10236534;28;20097;-83
2023/10/18 18:01:51;;;;;;;6.32;1.48;;;;;;;12.09;57.88;100565.81;10291325;28;20511;-81
2023/10/18 18:06:52;;;;;;;;;;;;;;;12.24;59.66;100567.75;10292008;28;20035;-80
2023/10/18 18:11:53;;;;;;;5.40;1.50;;;;;;;12.08;58.72;100565.97;10277561;28;20362;-79
2023/10/18 18:16:54;;;;;;;4.95;1.50;;;;;;;11.76;59.31;100517.16;10291654;28;20042;-79
2023/10/18 18:21:55;;;;;;;6.13;1.55;;;;;;;11.95;60.28;100555.03;10289444;28;20477;-80
2023/10/18 18:26:56;;;;;;;4.40;1.50;;;;;;;11.86;61.69;100546.25;10242552;29;20410;-79
2023/10/18 18:31:59;;;;;;;5.95;1.60;;;;;;;11.77;62.34;100544.59;10242255;29;20109;-76
2023/10/18 18:36:59;;;;;;;4.50;1.63;;;;;;;11.94;62.86;100575.53;10297904;28;20046;-81
2023/10/18 18:42:02;;;;;;;7.15;1.85;;;;;;;11.85;63.52;100571.22;10298761;28;20043;-81
2023/10/18 18:47:03;;;;;;;6.32;1.58;;;;;;;11.85;63.69;100577.38;10297921;28;20042;-80
2023/10/18 18:52:04;;;;;;;6.60;1.58;;;;;;;11.60;64.14;100551.78;10298252;28;20049;-80
2023/10/18 18:57:04;;;;;;;5.32;2.10;;;;;;;11.67;65.27;100576.72;10298642;28;20084;-80
2023/10/18 19:02:05;;;;;;;8.93;2.03;;;;;;;11.65;66.21;100578.72;10297027;28;20102;-80
2023/10/18 19:07:09;;;;;;;6.18;1.75;;;;;;;11.37;66.70;100541.84;10297136;28;20039;-80
2023/10/18 19:12:10;;;;;;;6.35;1.80;;;;;;;11.47;66.60;100556.78;10287715;28;20043;-81
2023/10/18 19:17:11;;;;;;;12.10;1.90;;;;;;;11.11;66.52;100490.69;10291931;28;20058;-81
2023/10/18 19:22:12;;;;;;;4.93;1.75;;;;;;;10.82;66.87;100444.19;10296889;28;20043;-82
2023/10/18 19:27:12;;;;;;;3.80;1.70;;;;;;;11.51;67.37;100555.44;10296381;28;20046;-81
2023/10/18 19:32:13;;;;;;;8.05;1.50;;;;;;;11.20;67.58;100506.44;10296111;28;20069;-82
2023/10/18 19:37:14;;;;;;;9.68;1.85;;;;;;;11.20;69.08;100516.25;10296006;28;20474;-82
2023/10/18 19:42:14;;;;;;;4.20;1.50;;;;;;;11.16;69.89;100514.94;10296603;28;20069;-82
2023/10/18 19:47:15;;;;;;;5.47;2.25;;;;;;;10.99;71.68;100503.47;10295769;28;20049;-85
2023/10/18 19:52:16;;;;;;;2.58;1.38;;;;;;;11.08;72.58;100537.03;10296529;28;20042;-85
2023/10/18 19:57:17;;;;;;;6.07;2.42;;;;;;;11.00;73.54;100526.41;10295334;28;20049;-85
2023/10/18 20:02:18;;;;;;;5.30;1.50;;;;;;;10.64;74.13;100472.75;10277888;28;20046;-82
2023/10/18 20:07:19;;;;;;;6.70;2.22;;;;;;;10.89;74.37;100513.47;10295843;28;20043;-83
2023/10/18 20:12:21;;;;;;;5.18;2.60;;;;;;;10.46;75.34;100449.00;10294809;28;20561;-88
2023/10/18 20:17:22;;;;;;;8.55;2.38;;;;;;;10.66;75.88;100476.06;10294608;28;20141;-84
2023/10/18 20:22:23;;;;;;;14.68;2.50;;;;;;;10.87;76.52;100510.94;10293314;28;20422;-80
2023/10/18 20:27:24;;;;;;;5.85;2.05;;;;;;;10.82;77.20;100502.63;10295157;28;20054;-81
2023/10/18 20:32:25;;;;;;;9.57;2.13;;;;;;;10.64;78.02;100486.03;10294038;28;20038;-82
2023/10/18 20:37:25;;;;;;;6.53;2.10;;;;;;;10.19;78.86;100431.50;10294876;28;20042;-82
2023/10/18 20:42:26;;;;;;;7.10;2.33;;;;;;;10.53;79.50;100495.16;10276804;28;20070;-82
2023/10/18 20:47:27;;;;;;;8.15;2.15;;;;;;;10.37;79.53;100482.66;10268633;28;20126;-83
2023/10/18 20:52:31;;;;;;;6.68;2.10;;;;;;;10.65;80.32;100516.91;10259002;28;20418;-82
2023/10/18 20:57:31;;;;;;;8.05;2.30;;;;;;;10.57;80.61;100504.44;10254843;28;20488;-82
2023/10/18 21:02:32;;;;;;;8.60;2.33;;;;;;;10.31;81.27;100455.94;10271841;28;20034;-83
2023/10/18 21:07:39;;;;;;;8.70;2.78;;;;;;;10.54;82.11;100506.63;10293401;28;20046;-92
2023/10/18 21:12:40;;;;;;;6.68;1.90;;;;;;;10.50;82.69;100504.28;10295457;28;20046;-91
2023/10/18 21:17:45;;;;;;;5.70;2.10;;;;;;;10.26;82.46;100462.59;10294283;28;20057;-87
2023/10/18 21:22:46;;;;;;;7.97;1.80;;;;;;;10.42;83.22;100490.97;10294472;28;20097;-91
2023/10/18 21:27:47;;;;;;;3.40;1.83;;;;;;;10.50;83.70;100509.59;10293997;28;20054;-90
2023/10/18 21:32:49;;;;;;;7.18;2.20;;;;;;;9.89;84.35;100417.81;10292726;28;20141;-85
2023/10/18 21:37:52;;;;;;;6.45;2.25;;;;;;;10.22;84.92;100479.78;10292620;28;20042;-89
2023/10/18 21:42:53;;;;;;;5.43;2.50;;;;;;;9.80;86.28;100416.97;10292071;28;20038;-87
2023/10/18 21:47:54;;;;;;;9.57;3.30;;;;;;;10.31;87.35;100515.19;10292024;28;20065;-86
2023/10/18 21:52:55;;;;;;;15.48;2.80;;;;;;;9.81;88.40;100431.91;10292501;28;20046;-87
2023/10/18 21:57:56;;;;;;;7.93;3.28;;;;;;;10.07;89.92;100482.22;10292182;28;20049;-85
2023/10/18 22:03:01;;;;;;;8.07;3.00;;;;;;;9.95;90.70;100451.66;10292544;28;20042;-90
2023/10/18 22:08:02;;;;;;;;;;;;;;;10.50;95.08;100506.94;10292871;28;20115;-90
2023/10/18 22:13:03;;;;;;;5.35;2.83;;;;;;;10.16;90.09;100479.59;10292862;28;19913;-92
2023/10/18 22:18:04;;;;;;;6.07;2.97;;;;;;;9.66;91.34;100395.53;10292975;28;20066;-89
2023/10/18 22:23:07;;;;;;;7.55;2.88;;;;;;;9.92;91.84;100446.69;10293610;28;20046;-88
2023/10/18 22:28:10;;;;;;;10.52;3.58;;;;;;;10.11;92.96;100472.16;10290477;28;20403;-84
2023/10/18 22:33:13;;;;;;;9.07;2.90;;;;;;;9.95;94.24;100451.66;10291687;28;20039;-89
2023/10/18 22:38:18;;;;;;;4.70;2.47;;;;;;;9.85;95.34;100428.94;10292816;28;20034;-91
2023/10/18 22:43:25;;;;;;;8.48;2.83;;;;;;;10.28;97.91;100520.81;10292682;28;20130;-89
2023/10/18 22:48:26;;;;;;;7.15;2.33;;;;;;;10.25;97.24;100505.19;10291762;28;20039;-88
2023/10/18 22:54:03;;;;;;;5.82;2.08;;;;;;;9.98;98.25;100453.19;10292547;28;20043;-89
2023/10/18 22:58:55;;;;;;;2.78;1.60;;;;;;;10.19;98.51;100482.75;10288108;28;20137;-90
2023/10/18 23:03:56;;;;;;;1.67;1.05;;;;;;;10.30;99.43;100481.66;10274310;28;20034;-89
2023/10/18 23:09:06;;;;;;;2.88;1.10;;;;;;;9.91;100.00;100422.97;10294123;28;20050;-88
2023/10/18 23:29:40;;;;;;;4.13;1.58;;;;;;;9.97;100.00;100448.88;10296832;28;20070;-84
2023/10/18 23:34:50;;;;;;;3.50;2.35;;;;;;;9.77;100.00;100427.91;10297879;28;20042;-83
2023/10/18 23:39:54;;;;;;;2.95;2.30;;;;;;;9.79;100.00;100438.38;10296475;28;20088;-84
2023/10/18 23:50:01;;;;;;;4.38;2.55;;;;;;;9.86;100.00;100436.72;10295616;28;20081;-84
2023/10/18 23:55:13;;;;;;;4.47;2.88;;;;;;;10.11;100.00;100476.59;10296193;28;20047;-82
